sensor_id;sensor_type;location;lat;lon;timestamp;P1;durP1;ratioP1;P2;durP2;ratioP2
56820;SDS011;42702;50.178;20.992;2022-12-15T00:00:03;34.60;;;18.90;;
56820;SDS011;42702;50.178;20.992;2022-12-15T00:03:10;27.00;;;12.30;;
56820;SDS011;42702;50.178;20.992;2022-12-15T00:05:59;27.80;;;11.90;;
56820;SDS011;42702;50.178;20.992;2022-12-15T00:08:45;23.90;;;12.40;;
56820;SDS011;42702;50.178;20.992;2022-12-15T00:11:39;25.60;;;11.20;;
56820;SDS011;42702;50.178;20.992;2022-12-15T00:14:25;23.40;;;11.60;;
56820;SDS011;42702;50.178;20.992;2022-12-15T00:17:12;33.20;;;14.00;;
56820;SDS011;42702;50.178;20.992;2022-12-15T00:19:59;26.60;;;12.70;;
56820;SDS011;42702;50.178;20.992;2022-12-15T00:22:46;28.40;;;13.00;;
56820;SDS011;42702;50.178;20.992;2022-12-15T00:25:33;23.70;;;11.00;;
56820;SDS011;42702;50.178;20.992;2022-12-15T00:28:19;21.30;;;11.60;;
56820;SDS011;42702;50.178;20.992;2022-12-15T00:31:06;25.70;;;12.60;;
56820;SDS011;42702;50.178;20.992;2022-12-15T00:33:53;25.20;;;12.30;;
56820;SDS011;42702;50.178;20.992;2022-12-15T00:36:39;49.50;;;22.10;;
56820;SDS011;42702;50.178;20.992;2022-12-15T00:39:26;40.80;;;18.20;;
56820;SDS011;42702;50.178;20.992;2022-12-15T00:41:54;37.10;;;17.00;;
56820;SDS011;42702;50.178;20.992;2022-12-15T00:44:22;36.20;;;16.00;;
56820;SDS011;42702;50.178;20.992;2022-12-15T00:46:51;42.10;;;17.90;;
56820;SDS011;42702;50.178;20.992;2022-12-15T00:49:28;32.90;;;14.90;;
56820;SDS011;42702;50.178;20.992;2022-12-15T00:52:16;28.90;;;14.90;;
56820;SDS011;42702;50.178;20.992;2022-12-15T00:55:03;40.40;;;17.60;;
56820;SDS011;42702;50.178;20.992;2022-12-15T00:57:52;30.20;;;15.20;;
56820;SDS011;42702;50.178;20.992;2022-12-15T01:00:39;42.10;;;18.50;;
56820;SDS011;42702;50.178;20.992;2022-12-15T01:03:26;35.70;;;17.10;;
56820;SDS011;42702;50.178;20.992;2022-12-15T01:06:14;28.30;;;13.50;;
56820;SDS011;42702;50.178;20.992;2022-12-15T01:09:04;24.20;;;11.70;;
56820;SDS011;42702;50.178;20.992;2022-12-15T01:11:52;26.90;;;12.40;;
56820;SDS011;42702;50.178;20.992;2022-12-15T01:14:39;32.80;;;15.40;;
56820;SDS011;42702;50.178;20.992;2022-12-15T01:17:26;40.30;;;17.50;;
56820;SDS011;42702;50.178;20.992;2022-12-15T01:20:13;35.30;;;16.30;;
56820;SDS011;42702;50.178;20.992;2022-12-15T01:22:51;34.20;;;17.20;;
56820;SDS011;42702;50.178;20.992;2022-12-15T01:25:23;37.10;;;15.80;;
56820;SDS011;42702;50.178;20.992;2022-12-15T01:27:52;34.90;;;16.10;;
56820;SDS011;42702;50.178;20.992;2022-12-15T01:30:22;31.60;;;14.60;;
56820;SDS011;42702;50.178;20.992;2022-12-15T01:32:52;31.70;;;14.30;;
56820;SDS011;42702;50.178;20.992;2022-12-15T01:35:21;29.00;;;13.30;;
56820;SDS011;42702;50.178;20.992;2022-12-15T01:37:49;28.10;;;13.90;;
56820;SDS011;42702;50.178;20.992;2022-12-15T01:40:18;36.20;;;17.60;;
56820;SDS011;42702;50.178;20.992;2022-12-15T01:43:25;32.00;;;13.80;;
56820;SDS011;42702;50.178;20.992;2022-12-15T01:46:00;114.60;;;52.30;;
56820;SDS011;42702;50.178;20.992;2022-12-15T01:48:34;48.70;;;22.60;;
56820;SDS011;42702;50.178;20.992;2022-12-15T01:51:14;30.30;;;16.00;;
56820;SDS011;42702;50.178;20.992;2022-12-15T01:56:42;32.70;;;14.80;;
56820;SDS011;42702;50.178;20.992;2022-12-15T01:59:14;39.60;;;20.60;;
56820;SDS011;42702;50.178;20.992;2022-12-15T02:01:46;36.80;;;17.00;;
56820;SDS011;42702;50.178;20.992;2022-12-15T02:04:16;37.00;;;18.50;;
56820;SDS011;42702;50.178;20.992;2022-12-15T02:06:47;32.20;;;14.70;;
56820;SDS011;42702;50.178;20.992;2022-12-15T02:09:15;37.10;;;15.70;;
56820;SDS011;42702;50.178;20.992;2022-12-15T02:25:47;34.10;;;13.10;;
56820;SDS011;42702;50.178;20.992;2022-12-15T02:31:34;24.80;;;10.20;;
56820;SDS011;42702;50.178;20.992;2022-12-15T02:37:08;23.40;;;10.10;;
56820;SDS011;42702;50.178;20.992;2022-12-15T02:39:42;25.20;;;11.10;;
56820;SDS011;42702;50.178;20.992;2022-12-15T02:42:11;37.60;;;15.70;;
56820;SDS011;42702;50.178;20.992;2022-12-15T02:44:41;28.80;;;13.60;;
56820;SDS011;42702;50.178;20.992;2022-12-15T02:53:32;30.10;;;13.10;;
56820;SDS011;42702;50.178;20.992;2022-12-15T03:02:25;34.70;;;15.70;;
56820;SDS011;42702;50.178;20.992;2022-12-15T03:04:58;29.30;;;13.50;;
56820;SDS011;42702;50.178;20.992;2022-12-15T03:07:26;29.90;;;13.50;;
56820;SDS011;42702;50.178;20.992;2022-12-15T03:09:55;32.60;;;14.30;;
56820;SDS011;42702;50.178;20.992;2022-12-15T03:12:25;37.10;;;14.40;;
56820;SDS011;42702;50.178;20.992;2022-12-15T03:14:54;35.10;;;13.30;;
56820;SDS011;42702;50.178;20.992;2022-12-15T03:17:22;40.20;;;15.00;;
56820;SDS011;42702;50.178;20.992;2022-12-15T03:19:50;34.60;;;14.50;;
56820;SDS011;42702;50.178;20.992;2022-12-15T03:22:18;40.30;;;17.50;;
56820;SDS011;42702;50.178;20.992;2022-12-15T03:24:46;40.10;;;17.10;;
56820;SDS011;42702;50.178;20.992;2022-12-15T03:27:15;33.80;;;14.50;;
56820;SDS011;42702;50.178;20.992;2022-12-15T03:29:43;34.20;;;16.20;;
56820;SDS011;42702;50.178;20.992;2022-12-15T03:32:11;31.60;;;13.70;;
56820;SDS011;42702;50.178;20.992;2022-12-15T03:34:39;23.00;;;12.20;;
56820;SDS011;42702;50.178;20.992;2022-12-15T03:37:07;13.60;;;7.30;;
56820;SDS011;42702;50.178;20.992;2022-12-15T03:39:35;27.40;;;12.90;;
56820;SDS011;42702;50.178;20.992;2022-12-15T03:42:03;26.40;;;11.70;;
56820;SDS011;42702;50.178;20.992;2022-12-15T03:44:32;29.20;;;12.80;;
56820;SDS011;42702;50.178;20.992;2022-12-15T03:47:00;29.50;;;13.30;;
56820;SDS011;42702;50.178;20.992;2022-12-15T03:49:30;23.50;;;13.60;;
56820;SDS011;42702;50.178;20.992;2022-12-15T03:51:58;23.60;;;9.80;;
56820;SDS011;42702;50.178;20.992;2022-12-15T03:54:26;21.60;;;9.90;;
56820;SDS011;42702;50.178;20.992;2022-12-15T03:56:54;31.70;;;14.00;;
56820;SDS011;42702;50.178;20.992;2022-12-15T03:59:22;22.50;;;10.70;;
56820;SDS011;42702;50.178;20.992;2022-12-15T04:01:50;30.20;;;12.80;;
56820;SDS011;42702;50.178;20.992;2022-12-15T04:04:19;35.50;;;13.70;;
56820;SDS011;42702;50.178;20.992;2022-12-15T04:06:47;19.70;;;10.20;;
56820;SDS011;42702;50.178;20.992;2022-12-15T04:09:15;19.90;;;9.70;;
56820;SDS011;42702;50.178;20.992;2022-12-15T04:11:43;35.10;;;15.20;;
56820;SDS011;42702;50.178;20.992;2022-12-15T04:14:11;37.90;;;18.00;;
56820;SDS011;42702;50.178;20.992;2022-12-15T04:16:39;29.80;;;14.50;;
56820;SDS011;42702;50.178;20.992;2022-12-15T04:19:07;32.80;;;15.70;;
56820;SDS011;42702;50.178;20.992;2022-12-15T04:21:54;35.80;;;18.10;;
56820;SDS011;42702;50.178;20.992;2022-12-15T04:24:22;35.10;;;15.20;;
56820;SDS011;42702;50.178;20.992;2022-12-15T04:27:09;26.50;;;12.50;;
56820;SDS011;42702;50.178;20.992;2022-12-15T04:29:55;40.40;;;18.50;;
56820;SDS011;42702;50.178;20.992;2022-12-15T04:32:43;28.40;;;15.50;;
56820;SDS011;42702;50.178;20.992;2022-12-15T04:35:30;29.60;;;14.40;;
56820;SDS011;42702;50.178;20.992;2022-12-15T04:38:20;33.60;;;14.70;;
56820;SDS011;42702;50.178;20.992;2022-12-15T04:41:17;32.80;;;15.00;;
56820;SDS011;42702;50.178;20.992;2022-12-15T04:44:06;39.00;;;18.10;;
56820;SDS011;42702;50.178;20.992;2022-12-15T04:46:53;48.30;;;21.60;;
56820;SDS011;42702;50.178;20.992;2022-12-15T04:49:40;35.30;;;17.60;;
56820;SDS011;42702;50.178;20.992;2022-12-15T04:52:27;33.20;;;16.20;;
56820;SDS011;42702;50.178;20.992;2022-12-15T04:55:14;37.20;;;16.30;;
56820;SDS011;42702;50.178;20.992;2022-12-15T04:58:04;42.10;;;17.90;;
56820;SDS011;42702;50.178;20.992;2022-12-15T05:00:53;25.10;;;11.20;;
56820;SDS011;42702;50.178;20.992;2022-12-15T05:03:43;36.80;;;15.30;;
56820;SDS011;42702;50.178;20.992;2022-12-15T05:06:30;35.30;;;16.60;;
56820;SDS011;42702;50.178;20.992;2022-12-15T05:09:16;29.40;;;12.80;;
56820;SDS011;42702;50.178;20.992;2022-12-15T05:12:03;31.30;;;15.50;;
56820;SDS011;42702;50.178;20.992;2022-12-15T05:14:50;30.40;;;13.30;;
56820;SDS011;42702;50.178;20.992;2022-12-15T05:17:37;35.90;;;15.50;;
56820;SDS011;42702;50.178;20.992;2022-12-15T05:20:23;34.30;;;14.70;;
56820;SDS011;42702;50.178;20.992;2022-12-15T05:23:10;33.20;;;15.70;;
56820;SDS011;42702;50.178;20.992;2022-12-15T05:25:58;42.70;;;16.10;;
56820;SDS011;42702;50.178;20.992;2022-12-15T05:28:45;37.80;;;17.90;;
56820;SDS011;42702;50.178;20.992;2022-12-15T05:31:32;40.60;;;16.20;;
56820;SDS011;42702;50.178;20.992;2022-12-15T05:34:22;43.80;;;18.50;;
56820;SDS011;42702;50.178;20.992;2022-12-15T05:36:53;30.40;;;14.80;;
56820;SDS011;42702;50.178;20.992;2022-12-15T05:39:22;27.10;;;13.60;;
56820;SDS011;42702;50.178;20.992;2022-12-15T05:41:52;75.80;;;31.40;;
56820;SDS011;42702;50.178;20.992;2022-12-15T05:44:22;25.70;;;11.90;;
56820;SDS011;42702;50.178;20.992;2022-12-15T05:46:51;44.40;;;26.00;;
56820;SDS011;42702;50.178;20.992;2022-12-15T05:49:19;30.10;;;15.00;;
56820;SDS011;42702;50.178;20.992;2022-12-15T05:51:50;26.90;;;14.30;;
56820;SDS011;42702;50.178;20.992;2022-12-15T05:54:18;26.60;;;13.00;;
56820;SDS011;42702;50.178;20.992;2022-12-15T05:56:47;23.30;;;11.90;;
56820;SDS011;42702;50.178;20.992;2022-12-15T05:59:17;20.10;;;10.00;;
56820;SDS011;42702;50.178;20.992;2022-12-15T06:01:48;27.10;;;12.40;;
56820;SDS011;42702;50.178;20.992;2022-12-15T06:04:16;28.10;;;12.60;;
56820;SDS011;42702;50.178;20.992;2022-12-15T06:06:45;38.20;;;17.90;;
56820;SDS011;42702;50.178;20.992;2022-12-15T06:09:13;34.00;;;16.20;;
56820;SDS011;42702;50.178;20.992;2022-12-15T06:11:41;33.20;;;14.10;;
56820;SDS011;42702;50.178;20.992;2022-12-15T06:14:10;16.80;;;9.60;;
56820;SDS011;42702;50.178;20.992;2022-12-15T06:16:38;29.50;;;14.20;;
56820;SDS011;42702;50.178;20.992;2022-12-15T06:19:18;31.60;;;13.20;;
56820;SDS011;42702;50.178;20.992;2022-12-15T06:21:47;24.30;;;11.80;;
56820;SDS011;42702;50.178;20.992;2022-12-15T06:24:15;34.60;;;14.90;;
56820;SDS011;42702;50.178;20.992;2022-12-15T06:26:43;44.30;;;16.80;;
56820;SDS011;42702;50.178;20.992;2022-12-15T06:29:16;43.80;;;16.50;;
56820;SDS011;42702;50.178;20.992;2022-12-15T06:31:45;51.40;;;19.60;;
56820;SDS011;42702;50.178;20.992;2022-12-15T06:34:14;45.70;;;17.10;;
56820;SDS011;42702;50.178;20.992;2022-12-15T06:36:43;40.60;;;16.60;;
56820;SDS011;42702;50.178;20.992;2022-12-15T06:39:12;36.90;;;15.00;;
56820;SDS011;42702;50.178;20.992;2022-12-15T06:41:43;40.00;;;17.30;;
56820;SDS011;42702;50.178;20.992;2022-12-15T06:44:12;32.50;;;14.10;;
56820;SDS011;42702;50.178;20.992;2022-12-15T06:46:41;20.60;;;10.50;;
56820;SDS011;42702;50.178;20.992;2022-12-15T06:49:12;40.60;;;17.60;;
56820;SDS011;42702;50.178;20.992;2022-12-15T06:51:41;40.10;;;17.90;;
56820;SDS011;42702;50.178;20.992;2022-12-15T06:54:10;32.00;;;15.80;;
56820;SDS011;42702;50.178;20.992;2022-12-15T06:56:39;26.40;;;14.60;;
56820;SDS011;42702;50.178;20.992;2022-12-15T06:59:07;33.20;;;15.60;;
56820;SDS011;42702;50.178;20.992;2022-12-15T07:01:37;26.20;;;11.30;;
56820;SDS011;42702;50.178;20.992;2022-12-15T07:04:05;32.70;;;16.30;;
56820;SDS011;42702;50.178;20.992;2022-12-15T07:06:34;50.20;;;22.10;;
56820;SDS011;42702;50.178;20.992;2022-12-15T07:09:05;41.10;;;18.20;;
56820;SDS011;42702;50.178;20.992;2022-12-15T07:11:35;22.50;;;12.00;;
56820;SDS011;42702;50.178;20.992;2022-12-15T07:14:03;32.80;;;16.40;;
56820;SDS011;42702;50.178;20.992;2022-12-15T07:16:31;33.50;;;15.20;;
56820;SDS011;42702;50.178;20.992;2022-12-15T07:18:59;37.10;;;18.40;;
56820;SDS011;42702;50.178;20.992;2022-12-15T07:21:28;40.10;;;18.60;;
56820;SDS011;42702;50.178;20.992;2022-12-15T07:23:56;50.10;;;23.70;;
56820;SDS011;42702;50.178;20.992;2022-12-15T07:26:26;32.40;;;14.80;;
56820;SDS011;42702;50.178;20.992;2022-12-15T07:28:54;44.10;;;20.70;;
56820;SDS011;42702;50.178;20.992;2022-12-15T07:31:23;31.10;;;13.00;;
56820;SDS011;42702;50.178;20.992;2022-12-15T07:33:51;28.20;;;13.60;;
56820;SDS011;42702;50.178;20.992;2022-12-15T07:36:21;48.60;;;20.70;;
56820;SDS011;42702;50.178;20.992;2022-12-15T07:38:49;31.20;;;14.90;;
56820;SDS011;42702;50.178;20.992;2022-12-15T07:41:18;35.50;;;16.00;;
56820;SDS011;42702;50.178;20.992;2022-12-15T07:43:47;32.40;;;15.80;;
56820;SDS011;42702;50.178;20.992;2022-12-15T07:46:16;43.90;;;19.40;;
56820;SDS011;42702;50.178;20.992;2022-12-15T07:48:45;76.80;;;36.30;;
56820;SDS011;42702;50.178;20.992;2022-12-15T07:51:17;35.90;;;18.10;;
56820;SDS011;42702;50.178;20.992;2022-12-15T07:53:48;27.80;;;13.90;;
56820;SDS011;42702;50.178;20.992;2022-12-15T07:56:18;59.90;;;25.70;;
56820;SDS011;42702;50.178;20.992;2022-12-15T07:58:48;27.20;;;14.80;;
56820;SDS011;42702;50.178;20.992;2022-12-15T08:01:16;61.60;;;26.20;;
56820;SDS011;42702;50.178;20.992;2022-12-15T08:03:44;50.00;;;21.70;;
56820;SDS011;42702;50.178;20.992;2022-12-15T08:06:13;51.10;;;23.80;;
56820;SDS011;42702;50.178;20.992;2022-12-15T08:08:43;51.60;;;22.80;;
56820;SDS011;42702;50.178;20.992;2022-12-15T08:11:18;42.70;;;19.90;;
56820;SDS011;42702;50.178;20.992;2022-12-15T08:13:49;47.70;;;22.10;;
56820;SDS011;42702;50.178;20.992;2022-12-15T08:16:37;61.60;;;27.90;;
56820;SDS011;42702;50.178;20.992;2022-12-15T08:19:08;65.40;;;29.00;;
56820;SDS011;42702;50.178;20.992;2022-12-15T08:21:39;56.60;;;26.30;;
56820;SDS011;42702;50.178;20.992;2022-12-15T08:24:08;39.60;;;20.60;;
56820;SDS011;42702;50.178;20.992;2022-12-15T08:26:37;32.40;;;15.40;;
56820;SDS011;42702;50.178;20.992;2022-12-15T08:29:05;34.50;;;16.20;;
56820;SDS011;42702;50.178;20.992;2022-12-15T08:31:55;66.50;;;27.60;;
56820;SDS011;42702;50.178;20.992;2022-12-15T08:34:23;44.00;;;20.00;;
56820;SDS011;42702;50.178;20.992;2022-12-15T08:36:51;48.90;;;25.30;;
56820;SDS011;42702;50.178;20.992;2022-12-15T08:39:19;49.20;;;21.80;;
56820;SDS011;42702;50.178;20.992;2022-12-15T08:41:48;55.70;;;24.00;;
56820;SDS011;42702;50.178;20.992;2022-12-15T08:44:16;40.70;;;18.70;;
56820;SDS011;42702;50.178;20.992;2022-12-15T08:46:44;62.60;;;29.30;;
56820;SDS011;42702;50.178;20.992;2022-12-15T08:49:12;84.60;;;33.70;;
56820;SDS011;42702;50.178;20.992;2022-12-15T08:51:48;50.50;;;23.70;;
56820;SDS011;42702;50.178;20.992;2022-12-15T08:54:18;57.30;;;24.80;;
56820;SDS011;42702;50.178;20.992;2022-12-15T08:56:47;59.90;;;25.50;;
56820;SDS011;42702;50.178;20.992;2022-12-15T08:59:16;56.00;;;25.60;;
56820;SDS011;42702;50.178;20.992;2022-12-15T09:01:44;60.50;;;26.30;;
56820;SDS011;42702;50.178;20.992;2022-12-15T09:04:12;70.40;;;29.80;;
56820;SDS011;42702;50.178;20.992;2022-12-15T09:06:41;89.40;;;38.40;;
56820;SDS011;42702;50.178;20.992;2022-12-15T09:09:10;93.80;;;44.40;;
56820;SDS011;42702;50.178;20.992;2022-12-15T09:11:40;75.30;;;34.20;;
56820;SDS011;42702;50.178;20.992;2022-12-15T09:14:08;62.80;;;27.90;;
56820;SDS011;42702;50.178;20.992;2022-12-15T09:16:36;52.20;;;20.60;;
56820;SDS011;42702;50.178;20.992;2022-12-15T09:19:04;70.00;;;28.80;;
56820;SDS011;42702;50.178;20.992;2022-12-15T09:21:34;60.70;;;27.50;;
56820;SDS011;42702;50.178;20.992;2022-12-15T09:24:03;55.70;;;19.80;;
56820;SDS011;42702;50.178;20.992;2022-12-15T09:26:32;77.10;;;30.90;;
56820;SDS011;42702;50.178;20.992;2022-12-15T09:29:01;71.00;;;29.80;;
56820;SDS011;42702;50.178;20.992;2022-12-15T09:31:30;68.20;;;28.30;;
56820;SDS011;42702;50.178;20.992;2022-12-15T09:34:02;80.70;;;33.50;;
56820;SDS011;42702;50.178;20.992;2022-12-15T09:36:31;59.00;;;25.90;;
56820;SDS011;42702;50.178;20.992;2022-12-15T09:39:00;75.10;;;30.30;;
56820;SDS011;42702;50.178;20.992;2022-12-15T09:41:30;52.40;;;23.50;;
56820;SDS011;42702;50.178;20.992;2022-12-15T09:44:02;59.30;;;25.80;;
56820;SDS011;42702;50.178;20.992;2022-12-15T09:46:46;87.50;;;39.40;;
56820;SDS011;42702;50.178;20.992;2022-12-15T09:52:02;108.50;;;42.00;;
56820;SDS011;42702;50.178;20.992;2022-12-15T09:54:38;52.10;;;24.30;;
56820;SDS011;42702;50.178;20.992;2022-12-15T10:08:16;104.90;;;39.90;;
56820;SDS011;42702;50.178;20.992;2022-12-15T10:10:51;51.90;;;23.60;;
56820;SDS011;42702;50.178;20.992;2022-12-15T10:18:59;136.40;;;50.50;;
56820;SDS011;42702;50.178;20.992;2022-12-15T10:21:34;75.90;;;33.00;;
56820;SDS011;42702;50.178;20.992;2022-12-15T10:24:19;71.40;;;29.30;;
56820;SDS011;42702;50.178;20.992;2022-12-15T10:35:34;75.70;;;33.40;;
56820;SDS011;42702;50.178;20.992;2022-12-15T10:38:04;107.60;;;42.30;;
56820;SDS011;42702;50.178;20.992;2022-12-15T10:40:41;71.60;;;27.00;;
56820;SDS011;42702;50.178;20.992;2022-12-15T10:43:14;85.40;;;27.00;;
56820;SDS011;42702;50.178;20.992;2022-12-15T10:48:28;106.50;;;39.30;;
56820;SDS011;42702;50.178;20.992;2022-12-15T10:51:58;136.70;;;39.80;;
56820;SDS011;42702;50.178;20.992;2022-12-15T10:56:33;91.60;;;32.70;;
56820;SDS011;42702;50.178;20.992;2022-12-15T10:59:03;75.90;;;33.40;;
56820;SDS011;42702;50.178;20.992;2022-12-15T11:01:49;84.30;;;42.00;;
56820;SDS011;42702;50.178;20.992;2022-12-15T11:04:24;84.20;;;41.80;;
56820;SDS011;42702;50.178;20.992;2022-12-15T11:06:57;152.70;;;64.60;;
56820;SDS011;42702;50.178;20.992;2022-12-15T11:09:34;113.30;;;49.60;;
56820;SDS011;42702;50.178;20.992;2022-12-15T11:12:17;87.10;;;39.50;;
56820;SDS011;42702;50.178;20.992;2022-12-15T11:17:55;181.90;;;58.20;;
56820;SDS011;42702;50.178;20.992;2022-12-15T11:20:31;113.30;;;39.70;;
56820;SDS011;42702;50.178;20.992;2022-12-15T11:28:45;52.90;;;23.70;;
56820;SDS011;42702;50.178;20.992;2022-12-15T11:33:52;56.20;;;26.60;;
56820;SDS011;42702;50.178;20.992;2022-12-15T11:44:29;44.30;;;20.70;;
56820;SDS011;42702;50.178;20.992;2022-12-15T11:47:22;52.30;;;20.70;;
56820;SDS011;42702;50.178;20.992;2022-12-15T11:50:08;45.30;;;19.10;;
56820;SDS011;42702;50.178;20.992;2022-12-15T12:04:14;43.00;;;19.70;;
56820;SDS011;42702;50.178;20.992;2022-12-15T12:16:03;64.50;;;27.30;;
56820;SDS011;42702;50.178;20.992;2022-12-15T12:18:55;63.00;;;29.40;;
56820;SDS011;42702;50.178;20.992;2022-12-15T12:21:47;52.60;;;24.20;;
56820;SDS011;42702;50.178;20.992;2022-12-15T12:24:18;57.40;;;24.70;;
56820;SDS011;42702;50.178;20.992;2022-12-15T12:26:58;59.70;;;24.80;;
56820;SDS011;42702;50.178;20.992;2022-12-15T12:38:05;59.70;;;23.80;;
56820;SDS011;42702;50.178;20.992;2022-12-15T12:43:08;48.40;;;22.30;;
56820;SDS011;42702;50.178;20.992;2022-12-15T12:45:46;53.70;;;22.70;;
56820;SDS011;42702;50.178;20.992;2022-12-15T12:53:46;57.60;;;25.40;;
56820;SDS011;42702;50.178;20.992;2022-12-15T12:57:00;113.70;;;42.50;;
56820;SDS011;42702;50.178;20.992;2022-12-15T13:07:28;69.10;;;30.60;;
56820;SDS011;42702;50.178;20.992;2022-12-15T13:10:26;69.90;;;31.10;;
56820;SDS011;42702;50.178;20.992;2022-12-15T13:12:55;63.30;;;26.40;;
56820;SDS011;42702;50.178;20.992;2022-12-15T13:18:17;60.80;;;25.90;;
56820;SDS011;42702;50.178;20.992;2022-12-15T13:20:49;78.40;;;29.60;;
56820;SDS011;42702;50.178;20.992;2022-12-15T13:28:25;61.90;;;25.80;;
56820;SDS011;42702;50.178;20.992;2022-12-15T13:31:43;67.20;;;28.50;;
56820;SDS011;42702;50.178;20.992;2022-12-15T13:44:45;66.40;;;26.50;;
56820;SDS011;42702;50.178;20.992;2022-12-15T13:47:22;84.80;;;32.20;;
56820;SDS011;42702;50.178;20.992;2022-12-15T13:50:57;79.70;;;30.10;;
56820;SDS011;42702;50.178;20.992;2022-12-15T13:52:59;75.90;;;29.30;;
56820;SDS011;42702;50.178;20.992;2022-12-15T13:55:51;130.30;;;53.20;;
56820;SDS011;42702;50.178;20.992;2022-12-15T13:58:25;112.30;;;43.50;;
56820;SDS011;42702;50.178;20.992;2022-12-15T14:00:59;95.10;;;39.50;;
56820;SDS011;42702;50.178;20.992;2022-12-15T14:03:27;109.10;;;43.00;;
56820;SDS011;42702;50.178;20.992;2022-12-15T14:05:57;92.00;;;38.90;;
56820;SDS011;42702;50.178;20.992;2022-12-15T14:08:27;106.50;;;43.70;;
56820;SDS011;42702;50.178;20.992;2022-12-15T14:10:58;99.60;;;42.20;;
56820;SDS011;42702;50.178;20.992;2022-12-15T14:13:48;91.10;;;39.40;;
56820;SDS011;42702;50.178;20.992;2022-12-15T14:16:21;99.10;;;39.70;;
56820;SDS011;42702;50.178;20.992;2022-12-15T14:19:03;83.80;;;35.00;;
56820;SDS011;42702;50.178;20.992;2022-12-15T14:21:35;79.20;;;33.60;;
56820;SDS011;42702;50.178;20.992;2022-12-15T14:24:14;69.80;;;30.70;;
56820;SDS011;42702;50.178;20.992;2022-12-15T14:27:07;75.70;;;31.80;;
56820;SDS011;42702;50.178;20.992;2022-12-15T14:29:35;74.40;;;30.90;;
56820;SDS011;42702;50.178;20.992;2022-12-15T14:32:03;77.70;;;31.50;;
56820;SDS011;42702;50.178;20.992;2022-12-15T14:34:34;74.50;;;31.80;;
56820;SDS011;42702;50.178;20.992;2022-12-15T14:37:06;68.50;;;30.80;;
56820;SDS011;42702;50.178;20.992;2022-12-15T14:39:39;73.50;;;31.40;;
56820;SDS011;42702;50.178;20.992;2022-12-15T14:42:13;73.10;;;31.40;;
56820;SDS011;42702;50.178;20.992;2022-12-15T14:44:45;78.20;;;32.70;;
56820;SDS011;42702;50.178;20.992;2022-12-15T14:47:33;93.70;;;34.50;;
56820;SDS011;42702;50.178;20.992;2022-12-15T14:50:03;95.90;;;38.00;;
56820;SDS011;42702;50.178;20.992;2022-12-15T14:52:37;99.50;;;39.80;;
56820;SDS011;42702;50.178;20.992;2022-12-15T14:57:52;137.80;;;49.20;;
56820;SDS011;42702;50.178;20.992;2022-12-15T15:00:24;224.20;;;68.00;;
56820;SDS011;42702;50.178;20.992;2022-12-15T15:05:47;521.50;;;148.20;;
56820;SDS011;42702;50.178;20.992;2022-12-15T15:08:28;409.50;;;119.40;;
56820;SDS011;42702;50.178;20.992;2022-12-15T15:11:00;346.50;;;99.00;;
56820;SDS011;42702;50.178;20.992;2022-12-15T15:13:44;462.00;;;129.40;;
56820;SDS011;42702;50.178;20.992;2022-12-15T15:16:14;490.60;;;126.70;;
56820;SDS011;42702;50.178;20.992;2022-12-15T15:18:49;363.20;;;104.80;;
56820;SDS011;42702;50.178;20.992;2022-12-15T15:21:26;307.10;;;96.70;;
56820;SDS011;42702;50.178;20.992;2022-12-15T15:24:03;499.50;;;139.90;;
56820;SDS011;42702;50.178;20.992;2022-12-15T15:26:52;444.00;;;133.40;;
56820;SDS011;42702;50.178;20.992;2022-12-15T15:32:16;234.00;;;75.10;;
56820;SDS011;42702;50.178;20.992;2022-12-15T15:34:46;451.60;;;122.80;;
56820;SDS011;42702;50.178;20.992;2022-12-15T15:37:16;473.90;;;139.90;;
56820;SDS011;42702;50.178;20.992;2022-12-15T15:39:52;343.40;;;100.50;;
56820;SDS011;42702;50.178;20.992;2022-12-15T15:42:22;158.40;;;54.90;;
56820;SDS011;42702;50.178;20.992;2022-12-15T15:44:58;227.10;;;69.70;;
56820;SDS011;42702;50.178;20.992;2022-12-15T15:47:26;191.90;;;60.40;;
56820;SDS011;42702;50.178;20.992;2022-12-15T15:49:56;205.20;;;64.00;;
56820;SDS011;42702;50.178;20.992;2022-12-15T15:52:27;208.10;;;63.00;;
56820;SDS011;42702;50.178;20.992;2022-12-15T15:54:56;178.20;;;60.80;;
56820;SDS011;42702;50.178;20.992;2022-12-15T15:57:26;220.30;;;72.70;;
56820;SDS011;42702;50.178;20.992;2022-12-15T15:59:54;211.90;;;69.10;;
56820;SDS011;42702;50.178;20.992;2022-12-15T16:02:22;229.60;;;81.70;;
56820;SDS011;42702;50.178;20.992;2022-12-15T16:04:50;217.40;;;76.60;;
56820;SDS011;42702;50.178;20.992;2022-12-15T16:07:19;223.90;;;81.20;;
56820;SDS011;42702;50.178;20.992;2022-12-15T16:09:51;258.10;;;97.70;;
56820;SDS011;42702;50.178;20.992;2022-12-15T16:12:23;411.20;;;144.30;;
56820;SDS011;42702;50.178;20.992;2022-12-15T16:14:56;326.80;;;122.90;;
56820;SDS011;42702;50.178;20.992;2022-12-15T16:17:24;417.50;;;150.80;;
56820;SDS011;42702;50.178;20.992;2022-12-15T16:19:52;331.70;;;129.70;;
56820;SDS011;42702;50.178;20.992;2022-12-15T16:22:20;306.00;;;131.30;;
56820;SDS011;42702;50.178;20.992;2022-12-15T16:24:49;283.70;;;122.20;;
56820;SDS011;42702;50.178;20.992;2022-12-15T16:27:17;250.80;;;103.90;;
56820;SDS011;42702;50.178;20.992;2022-12-15T16:29:45;241.40;;;93.90;;
56820;SDS011;42702;50.178;20.992;2022-12-15T16:32:13;203.90;;;81.70;;
56820;SDS011;42702;50.178;20.992;2022-12-15T16:34:42;181.70;;;72.90;;
56820;SDS011;42702;50.178;20.992;2022-12-15T16:37:13;181.30;;;71.20;;
56820;SDS011;42702;50.178;20.992;2022-12-15T16:39:52;150.00;;;60.50;;
56820;SDS011;42702;50.178;20.992;2022-12-15T16:42:20;172.30;;;69.50;;
56820;SDS011;42702;50.178;20.992;2022-12-15T16:44:48;172.90;;;72.30;;
56820;SDS011;42702;50.178;20.992;2022-12-15T16:47:16;197.60;;;76.70;;
56820;SDS011;42702;50.178;20.992;2022-12-15T16:49:44;167.60;;;75.20;;
56820;SDS011;42702;50.178;20.992;2022-12-15T16:52:18;212.30;;;81.80;;
56820;SDS011;42702;50.178;20.992;2022-12-15T16:54:47;213.90;;;82.50;;
56820;SDS011;42702;50.178;20.992;2022-12-15T16:57:16;204.60;;;74.30;;
56820;SDS011;42702;50.178;20.992;2022-12-15T16:59:45;198.70;;;69.80;;
56820;SDS011;42702;50.178;20.992;2022-12-15T17:04:55;195.20;;;74.20;;
56820;SDS011;42702;50.178;20.992;2022-12-15T17:07:25;201.80;;;83.10;;
56820;SDS011;42702;50.178;20.992;2022-12-15T17:09:54;220.10;;;90.10;;
56820;SDS011;42702;50.178;20.992;2022-12-15T17:12:23;211.20;;;91.30;;
56820;SDS011;42702;50.178;20.992;2022-12-15T17:14:51;162.80;;;70.30;;
56820;SDS011;42702;50.178;20.992;2022-12-15T17:17:19;164.80;;;77.50;;
56820;SDS011;42702;50.178;20.992;2022-12-15T17:19:47;166.70;;;71.70;;
56820;SDS011;42702;50.178;20.992;2022-12-15T17:22:37;170.00;;;73.60;;
56820;SDS011;42702;50.178;20.992;2022-12-15T17:25:05;195.30;;;80.20;;
56820;SDS011;42702;50.178;20.992;2022-12-15T17:27:39;213.10;;;85.50;;
56820;SDS011;42702;50.178;20.992;2022-12-15T17:30:08;227.80;;;90.40;;